createdAt,value
2022-08-23T00:02:27.221Z,24.73
2022-08-23T00:05:09.254Z,24.15
2022-08-23T00:07:40.272Z,24.63
2022-08-23T00:10:15.990Z,21.38
2022-08-23T00:12:47.179Z,20.83
2022-08-23T00:15:18.786Z,18.55
2022-08-23T00:17:48.796Z,22.50
2022-08-23T00:20:20.545Z,15.77
2022-08-23T00:22:48.890Z,24.90
2022-08-23T00:25:18.289Z,20.95
2022-08-23T00:27:46.879Z,25.17
2022-08-23T00:30:16.708Z,24.77
2022-08-23T00:32:48.217Z,16.63
2022-08-23T00:35:26.608Z,19.15
2022-08-23T00:38:31.756Z,19.15
2022-08-23T00:40:51.535Z,17.92
2022-08-23T00:43:47.784Z,18.83
2022-08-23T00:47:03.482Z,17.63
2022-08-23T00:49:33.862Z,19.48
2022-08-23T00:52:26.154Z,18.00
2022-08-23T00:54:55.201Z,15.07
2022-08-23T00:57:23.754Z,20.77
2022-08-23T00:59:51.889Z,22.50
2022-08-23T01:02:20.530Z,14.57
2022-08-23T01:05:00.537Z,19.25
2022-08-23T01:07:46.401Z,22.27
2022-08-23T01:10:32.305Z,14.30
2022-08-23T01:13:15.489Z,20.02
2022-08-23T01:15:57.286Z,17.88
2022-08-23T01:18:28.733Z,19.95
2022-08-23T01:21:14.607Z,18.58
2022-08-23T01:23:51.794Z,16.67
2022-08-23T01:26:23.231Z,18.17
2022-08-23T01:28:53.875Z,22.38
2022-08-23T01:31:24.148Z,17.93
2022-08-23T01:34:07.652Z,18.33
2022-08-23T01:36:37.741Z,15.40
2022-08-23T01:39:08.333Z,22.95
2022-08-23T01:41:38.960Z,26.17
2022-08-23T01:44:08.925Z,16.30
2022-08-23T01:46:39.044Z,26.80
2022-08-23T01:49:08.501Z,23.83
2022-08-23T01:51:37.666Z,16.02
2022-08-23T01:54:06.632Z,22.90
2022-08-23T01:56:38.646Z,22.20
2022-08-23T01:59:11.184Z,18.17
2022-08-23T02:01:44.791Z,19.30
2022-08-23T02:04:13.058Z,22.80
2022-08-23T02:06:41.075Z,19.40
2022-08-23T02:09:17.910Z,19.75
2022-08-23T02:11:48.320Z,18.92
2022-08-23T02:14:20.962Z,24.00
2022-08-23T02:17:03.009Z,20.83
2022-08-23T02:19:37.982Z,23.70
2022-08-23T02:22:08.948Z,22.20
2022-08-23T02:24:42.964Z,21.20
2022-08-23T02:27:14.895Z,18.42
2022-08-23T02:29:46.655Z,17.85
2022-08-23T02:32:18.122Z,23.55
2022-08-23T02:34:59.882Z,24.67
2022-08-23T02:37:34.516Z,22.50
2022-08-23T02:40:06.452Z,21.67
2022-08-23T02:42:34.885Z,24.70
2022-08-23T02:45:04.422Z,22.77
2022-08-23T02:47:38.659Z,20.60
2022-08-23T02:50:16.724Z,24.42
2022-08-23T02:52:45.915Z,26.35
2022-08-23T02:55:14.802Z,25.42
2022-08-23T02:57:43.179Z,24.90
2022-08-23T03:00:15.305Z,28.58
2022-08-23T03:02:44.616Z,27.42
2022-08-23T03:05:14.357Z,22.38
2022-08-23T03:07:43.417Z,27.00
2022-08-23T03:10:12.803Z,31.58
2022-08-23T03:12:47.629Z,25.77
2022-08-23T03:15:15.722Z,29.58
2022-08-23T03:17:43.674Z,28.08
2022-08-23T03:20:11.986Z,27.15
2022-08-23T03:22:40.394Z,25.67
2022-08-23T03:25:19.256Z,32.20
2022-08-23T03:28:13.594Z,23.85
2022-08-23T03:30:46.190Z,26.42
2022-08-23T03:33:15.837Z,27.00
2022-08-23T03:35:48.970Z,33.35
2022-08-23T03:38:20.400Z,29.73
2022-08-23T03:40:52.505Z,23.35
2022-08-23T03:45:50.182Z,33.53
2022-08-23T03:48:18.624Z,21.48
2022-08-23T03:50:47.569Z,25.30
2022-08-23T03:53:16.358Z,35.22
2022-08-23T03:55:46.907Z,33.45
2022-08-23T03:58:18.384Z,32.17
2022-08-23T04:00:46.638Z,26.45
2022-08-23T04:03:15.123Z,32.08
2022-08-23T04:06:04.397Z,25.35
2022-08-23T04:08:33.553Z,25.17
2022-08-23T04:11:06.537Z,24.85
2022-08-23T04:13:36.525Z,25.67
2022-08-23T04:16:05.674Z,25.10
2022-08-23T04:18:35.309Z,24.45
2022-08-23T04:21:10.717Z,29.15
2022-08-23T04:23:40.047Z,28.73
2022-08-23T04:26:09.727Z,22.63
2022-08-23T04:28:41.771Z,26.55
2022-08-23T04:31:09.848Z,26.88
2022-08-23T04:33:41.077Z,24.95
2022-08-23T04:38:41.047Z,18.42
2022-08-23T04:41:30.401Z,22.90
2022-08-23T04:43:59.778Z,23.88
2022-08-23T04:46:29.288Z,21.02
2022-08-23T04:49:01.211Z,19.98
2022-08-23T04:51:29.490Z,20.20
2022-08-23T04:53:57.662Z,19.05
2022-08-23T04:56:44.686Z,23.85
2022-08-23T04:59:20.252Z,22.10
2022-08-23T05:01:51.040Z,21.90
2022-08-23T05:04:19.252Z,23.98
2022-08-23T05:06:47.760Z,19.42
2022-08-23T05:09:20.333Z,23.98
2022-08-23T05:11:49.507Z,22.80
2022-08-23T05:14:18.681Z,20.80
2022-08-23T05:16:50.253Z,22.23
2022-08-23T05:19:18.327Z,20.58
2022-08-23T05:21:48.565Z,20.33
2022-08-23T05:24:17.162Z,20.85
2022-08-23T05:26:48.191Z,21.83
2022-08-23T05:29:17.400Z,21.33
2022-08-23T05:31:49.800Z,21.15
2022-08-23T05:34:22.819Z,18.75
2022-08-23T05:36:57.185Z,20.70
2022-08-23T05:39:35.949Z,19.00
2022-08-23T05:42:16.155Z,29.85
2022-08-23T05:44:45.994Z,17.65
2022-08-23T05:47:17.055Z,22.90
2022-08-23T05:50:00.103Z,17.25
2022-08-23T05:52:31.305Z,22.95
2022-08-23T05:54:59.405Z,27.13
2022-08-23T05:57:48.022Z,16.00
2022-08-23T06:00:16.439Z,17.58
2022-08-23T06:02:49.425Z,16.65
2022-08-23T06:05:20.668Z,22.35
2022-08-23T06:07:50.687Z,19.23
2022-08-23T06:10:21.681Z,19.45
2022-08-23T06:12:56.130Z,23.02
2022-08-23T06:15:25.337Z,24.73
2022-08-23T06:17:53.473Z,20.77
2022-08-23T06:20:22.571Z,26.55
2022-08-23T06:23:05.947Z,19.70
2022-08-23T06:25:39.371Z,26.40
2022-08-23T06:28:15.691Z,22.13
2022-08-23T06:30:44.375Z,24.95
2022-08-23T06:33:14.951Z,22.13
2022-08-23T06:36:11.070Z,19.67
2022-08-23T06:39:16.013Z,22.27
2022-08-23T06:42:34.506Z,25.17
2022-08-23T06:45:04.535Z,28.58
2022-08-23T06:47:43.153Z,26.65
2022-08-23T06:50:11.552Z,22.45
2022-08-23T06:53:12.709Z,21.63
2022-08-23T06:55:50.559Z,32.42
2022-08-23T06:58:27.233Z,22.40
2022-08-23T07:01:49.550Z,24.48
2022-08-23T07:04:41.487Z,21.58
2022-08-23T07:07:11.946Z,27.00
2022-08-23T07:09:41.586Z,18.23
2022-08-23T07:12:11.215Z,25.70
2022-08-23T07:14:42.665Z,26.40
2022-08-23T07:17:12.851Z,19.73
2022-08-23T07:19:44.227Z,22.57
2022-08-23T07:22:15.559Z,19.60
2022-08-23T07:24:44.196Z,20.27
2022-08-23T07:27:12.499Z,18.98
2022-08-23T07:29:55.794Z,18.27
2022-08-23T07:32:23.922Z,23.58
2022-08-23T07:34:57.584Z,20.25
2022-08-23T07:37:28.316Z,20.05
2022-08-23T07:39:58.445Z,25.60
2022-08-23T07:42:27.502Z,23.70
2022-08-23T07:44:57.752Z,22.15
2022-08-23T07:47:29.880Z,30.35
2022-08-23T07:50:01.118Z,19.42
2022-08-23T07:52:31.569Z,41.03
2022-08-23T07:54:59.782Z,25.38
2022-08-23T07:57:39.546Z,37.22
2022-08-23T08:00:27.626Z,27.88
2022-08-23T08:03:07.198Z,32.08
2022-08-23T08:05:59.614Z,33.95
2022-08-23T08:08:28.273Z,35.95
2022-08-23T08:10:56.544Z,28.70
2022-08-23T08:13:25.051Z,45.95
2022-08-23T08:15:53.972Z,42.20
2022-08-23T08:18:25.571Z,46.38
2022-08-23T08:21:15.965Z,43.45
2022-08-23T08:24:17.080Z,43.22
2022-08-23T08:26:49.570Z,52.25
2022-08-23T08:29:18.853Z,44.35
2022-08-23T08:31:52.394Z,33.63
2022-08-23T08:34:22.873Z,54.40
2022-08-23T08:36:55.463Z,48.28
2022-08-23T08:39:31.672Z,41.40
2022-08-23T08:42:47.431Z,56.85
2022-08-23T08:45:28.083Z,64.43
2022-08-23T08:48:13.203Z,41.95
2022-08-23T08:50:56.993Z,62.45
2022-08-23T08:53:40.132Z,55.88
2022-08-23T08:56:32.686Z,48.15
2022-08-23T08:59:53.617Z,49.92
2022-08-23T09:02:33.355Z,55.63
2022-08-23T09:05:38.483Z,62.63
2022-08-23T09:08:39.429Z,66.18
2022-08-23T09:11:42.987Z,68.45
2022-08-23T09:14:44.993Z,61.63
2022-08-23T09:17:32.192Z,66.53
2022-08-23T09:20:06.506Z,58.63
2022-08-23T09:22:47.788Z,73.20
2022-08-23T09:25:25.998Z,65.40
2022-08-23T09:28:04.457Z,80.15
2022-08-23T09:31:08.320Z,60.47
2022-08-23T09:33:49.469Z,51.35
2022-08-23T09:36:39.870Z,68.35
2022-08-23T09:39:30.523Z,89.55
2022-08-23T09:42:08.962Z,87.03
2022-08-23T09:44:42.183Z,90.45
2022-08-23T09:47:17.558Z,59.08
2022-08-23T09:49:54.289Z,65.07
2022-08-23T09:52:33.009Z,87.13
2022-08-23T09:55:36.370Z,88.15
2022-08-23T09:58:18.878Z,68.18
2022-08-23T10:01:19.696Z,94.75
2022-08-23T10:04:24.795Z,70.65
2022-08-23T10:06:53.923Z,99.93
2022-08-23T10:09:32.992Z,92.38
2022-08-23T10:12:07.529Z,67.22
2022-08-23T10:14:36.448Z,79.90
2022-08-23T10:17:25.061Z,84.78
2022-08-23T10:20:04.860Z,77.63
2022-08-23T10:23:05.060Z,83.63
2022-08-23T10:25:54.003Z,90.13
2022-08-23T10:29:10.212Z,86.63
2022-08-23T10:31:41.612Z,90.60
2022-08-23T10:34:31.033Z,81.25
2022-08-23T10:37:54.755Z,98.72
2022-08-23T10:41:01.576Z,85.00
2022-08-23T10:43:52.892Z,93.10
2022-08-23T10:46:23.575Z,91.80
2022-08-23T10:51:42.902Z,97.60
2022-08-23T10:54:46.317Z,100.70
2022-08-23T10:57:22.064Z,92.80
2022-08-23T10:59:52.303Z,81.50
2022-08-23T11:02:43.090Z,87.28
2022-08-23T11:05:35.623Z,75.53
2022-08-23T11:08:35.179Z,89.95
2022-08-23T11:11:43.261Z,77.95
2022-08-23T11:14:28.300Z,89.07
2022-08-23T11:17:01.207Z,101.22
2022-08-23T11:20:00.795Z,73.60
2022-08-23T11:22:34.829Z,77.28
2022-08-23T11:25:27.040Z,78.80
2022-08-23T11:28:30.417Z,81.57
2022-08-23T11:31:11.822Z,79.60
2022-08-23T11:34:11.185Z,78.18
2022-08-23T11:36:45.972Z,78.20
2022-08-23T11:39:19.640Z,74.53
2022-08-23T11:41:54.468Z,106.50
2022-08-23T11:44:34.197Z,87.18
2022-08-23T11:47:08.330Z,82.82
2022-08-23T11:50:15.079Z,92.90
2022-08-23T11:52:52.082Z,109.25
2022-08-23T11:55:50.938Z,74.70
2022-08-23T11:58:54.338Z,98.63
2022-08-23T12:01:39.449Z,97.72
2022-08-23T12:04:37.936Z,96.80
2022-08-23T12:07:12.914Z,86.35
2022-08-23T12:09:41.095Z,82.00
2022-08-23T12:12:25.665Z,86.95
2022-08-23T12:15:02.169Z,111.75
2022-08-23T12:17:34.037Z,79.07
2022-08-23T12:20:16.911Z,75.82
2022-08-23T12:23:15.097Z,73.72
2022-08-23T12:25:44.178Z,105.35
2022-08-23T12:28:40.837Z,103.65
2022-08-23T12:31:36.713Z,70.55
2022-08-23T12:34:32.294Z,85.78
2022-08-23T12:37:31.430Z,65.55
2022-08-23T12:40:02.988Z,96.55
2022-08-23T12:42:38.485Z,95.50
2022-08-23T12:45:20.596Z,96.63
2022-08-23T12:48:01.857Z,86.50
2022-08-23T12:50:38.367Z,88.38
2022-08-23T12:53:14.989Z,85.78
2022-08-23T12:55:51.342Z,96.88
2022-08-23T12:58:33.266Z,92.68
2022-08-23T13:01:31.976Z,93.18
2022-08-23T13:04:06.537Z,79.85
2022-08-23T13:06:49.612Z,89.78
2022-08-23T13:09:28.041Z,91.20
2022-08-23T13:11:59.742Z,97.55
2022-08-23T13:14:40.373Z,96.43
2022-08-23T13:17:25.633Z,105.10
2022-08-23T13:20:01.479Z,99.57
2022-08-23T13:22:32.093Z,96.68
2022-08-23T13:27:49.581Z,84.30
2022-08-23T13:30:25.652Z,100.38
2022-08-23T13:33:13.666Z,93.15
2022-08-23T13:35:52.050Z,96.80
2022-08-23T13:38:32.545Z,92.93
2022-08-23T13:41:13.963Z,82.80
2022-08-23T13:43:45.312Z,91.97
2022-08-23T13:46:22.903Z,86.70
2022-08-23T13:49:04.090Z,99.35
2022-08-23T13:51:38.842Z,85.65
2022-08-23T13:54:15.592Z,72.13
2022-08-23T13:56:53.346Z,76.35
2022-08-23T13:59:34.990Z,77.20
2022-08-23T14:02:12.382Z,57.65
2022-08-23T14:04:42.182Z,70.57
2022-08-23T14:07:12.635Z,83.88
2022-08-23T14:09:41.056Z,79.93
2022-08-23T14:12:19.191Z,67.78
2022-08-23T14:14:48.430Z,66.38
2022-08-23T14:17:20.620Z,79.55
2022-08-23T14:22:37.639Z,67.13
2022-08-23T14:25:07.688Z,66.88
2022-08-23T14:27:36.044Z,101.63
2022-08-23T14:30:05.840Z,83.32
2022-08-23T14:32:34.510Z,83.30
2022-08-23T14:35:02.545Z,84.28
2022-08-23T14:40:20.688Z,78.15
2022-08-23T14:42:49.536Z,62.90
2022-08-23T14:45:18.503Z,63.08
2022-08-23T14:47:47.368Z,61.95
2022-08-23T14:50:16.106Z,73.68
2022-08-23T14:52:48.111Z,62.58
2022-08-23T14:55:16.696Z,61.42
2022-08-23T14:57:44.815Z,78.25
2022-08-23T15:00:14.480Z,70.18
2022-08-23T15:02:48.889Z,68.85
2022-08-23T15:05:18.717Z,60.00
2022-08-23T15:07:46.946Z,49.50
2022-08-23T15:13:28.433Z,70.53
2022-08-23T15:15:54.143Z,75.18
2022-08-23T15:18:23.155Z,56.28
2022-08-23T15:20:51.360Z,60.05
2022-08-23T15:23:21.338Z,86.85
2022-08-23T15:25:50.549Z,70.22
2022-08-23T15:28:21.822Z,74.78
2022-08-23T15:30:51.861Z,80.47
2022-08-23T15:33:25.342Z,67.25
2022-08-23T15:35:57.414Z,56.35
2022-08-23T15:38:26.637Z,68.80
2022-08-23T15:40:56.384Z,73.68
2022-08-23T15:43:34.395Z,66.53
2022-08-23T15:46:07.546Z,68.95
2022-08-23T15:48:55.531Z,79.45
2022-08-23T15:51:25.336Z,65.40
2022-08-23T15:53:53.854Z,52.63
2022-08-23T15:56:45.000Z,64.85
2022-08-23T15:59:19.595Z,61.08
2022-08-23T16:01:50.207Z,54.85
2022-08-23T16:04:18.790Z,78.38
2022-08-23T16:06:48.450Z,55.30
2022-08-23T16:09:24.936Z,62.50
2022-08-23T16:11:57.127Z,60.55
2022-08-23T16:14:28.318Z,60.30
2022-08-23T16:16:56.840Z,67.88
2022-08-23T16:19:26.700Z,63.40
2022-08-23T16:21:57.761Z,60.40
2022-08-23T16:24:27.968Z,58.00
2022-08-23T16:26:56.696Z,51.10
2022-08-23T16:29:25.100Z,72.57
2022-08-23T16:31:53.821Z,65.40
2022-08-23T16:34:22.171Z,60.80
2022-08-23T16:36:59.177Z,62.70
2022-08-23T16:39:28.495Z,72.15
2022-08-23T16:41:56.935Z,54.15
2022-08-23T16:44:25.260Z,59.35
2022-08-23T16:46:53.931Z,62.63
2022-08-23T16:49:22.238Z,68.57
2022-08-23T16:51:50.924Z,65.55
2022-08-23T16:54:20.304Z,54.35
2022-08-23T16:56:48.755Z,66.10
2022-08-23T16:59:16.763Z,57.00
2022-08-23T17:01:58.969Z,41.28
2022-08-23T17:04:30.791Z,53.13
2022-08-23T17:07:00.592Z,48.95
2022-08-23T17:09:29.349Z,62.42
2022-08-23T17:12:01.370Z,60.67
2022-08-23T17:14:29.620Z,58.58
2022-08-23T17:16:58.105Z,58.40
2022-08-23T17:19:26.319Z,69.60
2022-08-23T17:21:54.442Z,60.63
2022-08-23T17:24:24.506Z,57.35
2022-08-23T17:26:52.687Z,52.40
2022-08-23T17:29:20.689Z,42.28
2022-08-23T17:31:49.097Z,51.30
2022-08-23T17:34:17.271Z,53.92
2022-08-23T17:36:52.815Z,47.58
2022-08-23T17:39:27.765Z,46.67
2022-08-23T17:41:59.194Z,53.85
2022-08-23T17:44:27.239Z,40.15
2022-08-23T17:46:55.535Z,55.08
2022-08-23T17:49:23.881Z,67.30
2022-08-23T17:51:52.037Z,53.95
2022-08-23T17:54:22.490Z,74.05
2022-08-23T17:56:51.351Z,52.65
2022-08-23T17:59:21.258Z,54.90
2022-08-23T18:01:49.523Z,49.83
2022-08-23T18:04:18.307Z,51.08
2022-08-23T18:06:46.877Z,53.15
2022-08-23T18:09:15.802Z,55.22
2022-08-23T18:11:44.161Z,60.05
2022-08-23T18:14:12.663Z,51.40
2022-08-23T18:16:41.584Z,54.25
2022-08-23T18:19:13.473Z,67.80
2022-08-23T18:21:45.509Z,58.97
2022-08-23T18:24:14.262Z,49.17
2022-08-23T18:27:03.758Z,66.97
2022-08-23T18:30:47.773Z,49.30
2022-08-23T18:34:34.406Z,48.50
2022-08-23T18:37:03.763Z,41.33
2022-08-23T18:39:32.422Z,68.68
2022-08-23T18:42:04.382Z,68.45
2022-08-23T18:44:32.999Z,52.53
2022-08-23T18:47:04.949Z,45.10
2022-08-23T18:49:35.844Z,72.82
2022-08-23T18:52:05.221Z,54.50
2022-08-23T18:54:34.580Z,55.28
2022-08-23T18:57:06.739Z,63.65
2022-08-23T18:59:37.960Z,65.18
2022-08-23T19:02:06.310Z,67.47
2022-08-23T19:04:34.771Z,58.03
2022-08-23T19:07:04.113Z,77.72
2022-08-23T19:09:32.363Z,55.17
2022-08-23T19:12:01.427Z,63.55
2022-08-23T19:14:30.556Z,52.60
2022-08-23T19:17:08.501Z,55.33
2022-08-23T19:19:36.882Z,60.90
2022-08-23T19:22:05.366Z,48.05
2022-08-23T19:24:34.167Z,67.85
2022-08-23T19:27:02.698Z,50.15
2022-08-23T19:29:32.074Z,51.22
2022-08-23T19:32:01.194Z,52.28
2022-08-23T19:34:30.263Z,50.58
2022-08-23T19:37:01.511Z,64.13
2022-08-23T19:39:31.049Z,54.58
2022-08-23T19:41:59.424Z,50.53
2022-08-23T19:44:28.386Z,63.78
2022-08-23T19:46:57.649Z,58.90
2022-08-23T19:49:27.092Z,41.60
2022-08-23T19:51:56.643Z,47.85
2022-08-23T19:54:28.807Z,54.70
2022-08-23T19:57:00.546Z,48.00
2022-08-23T19:59:33.308Z,55.75
2022-08-23T20:02:02.864Z,55.75
2022-08-23T20:04:34.358Z,63.70
2022-08-23T20:07:07.769Z,49.30
2022-08-23T20:09:37.052Z,63.58
2022-08-23T20:12:06.794Z,53.58
2022-08-23T20:14:35.707Z,43.13
2022-08-23T20:17:07.611Z,49.38
2022-08-23T20:19:36.661Z,51.10
2022-08-23T20:22:24.005Z,43.78
2022-08-23T20:24:53.219Z,65.32
2022-08-23T20:27:28.427Z,45.45
2022-08-23T20:30:01.818Z,52.80
2022-08-23T20:33:16.431Z,47.93
2022-08-23T20:35:44.658Z,44.53
2022-08-23T20:46:44.720Z,61.58
2022-08-23T21:03:21.711Z,45.80
2022-08-23T21:10:29.501Z,41.90
2022-08-23T21:22:15.379Z,54.88
2022-08-23T21:29:21.586Z,55.13
2022-08-23T21:41:12.197Z,54.63
2022-08-23T21:48:18.607Z,51.60
2022-08-23T21:51:12.922Z,53.47
2022-08-23T22:02:55.808Z,70.32
2022-08-23T22:14:38.933Z,50.90
2022-08-23T22:18:06.873Z,52.38
2022-08-23T22:29:54.885Z,47.60
2022-08-23T22:36:56.206Z,52.58
